Terminal Aerodrome Forecast
Issued by NWS

Home | Current Version | Previous Version | Text Only | Print | Product List | Glossary On
Versions: 1 2 3 4 5 6 7 8 9 10 11 12 13 14 15 16 17 18
000
FTUS46 KPQR 201120
TAFONP
TAF
KONP 201120Z 2012/2112 VRB03KT P6SM OVC025
     FM202000 33009KT P6SM OVC025
     FM210000 33010KT P6SM BKN030
     FM210400 36004KT P6SM OVC025=

USA.gov is the U.S. government's official web portal to all federal, state and local government web resources and services.